EDT,Max TemperatureF,Mean TemperatureF,Min TemperatureF,Max Dew PointF,MeanDew PointF,Min DewpointF,Max Humidity, Mean Humidity, Min Humidity, Max Sea Level PressureIn, Mean Sea Level PressureIn, Min Sea Level PressureIn, Max VisibilityMiles, Mean VisibilityMiles, Min VisibilityMiles, Max Wind SpeedMPH, Mean Wind SpeedMPH, Max Gust SpeedMPH,PrecipitationIn, CloudCover, Events, WindDirDegrees
2013-6-1,78,68,60,69,64,60,100,90,76,30.02,29.98,29.94,7,6,2,9,4,,0.00,0,,192
2013-6-2,73,68,62,67,64,62,100,90,81,29.93,29.88,29.83,8,6,3,15,7,,0.00,1,,202
2013-6-3,69,63,60,67,64,58,100,99,75,29.85,29.83,29.80,10,4,1,15,7,17,0.12,7,Rain-Thunderstorm,212
2013-6-4,73,64,55,53,46,37,87,55,41,30.08,29.96,29.84,10,10,10,21,13,29,0.00,1,,320
2013-6-5,66,59,52,56,52,47,100,75,54,30.20,30.15,30.09,10,10,9,13,6,,0.00,0,,202
2013-6-6,69,58,50,61,56,50,100,91,72,30.19,30.15,30.07,10,8,2,13,3,,0.00,4,Rain,104
2013-6-7,60,58,57,61,58,55,100,96,88,30.04,29.87,29.69,10,4,0,21,12,30,3.97,8,Fog-Rain,62
2013-6-8,73,64,57,66,60,55,100,92,68,30.02,29.73,29.53,10,6,1,17,11,24,0.81,6,Rain-Thunderstorm,308
2013-6-9,75,66,57,61,60,58,100,85,59,30.18,30.10,30.03,10,8,0,14,3,16,0.00,1,Fog,247
2013-6-10,71,64,57,62,60,57,100,92,65,30.18,30.07,29.92,9,5,1,22,8,29,1.37,6,Rain,91
2013-6-11,75,68,60,70,64,60,100,96,79,29.92,29.73,29.58,10,4,0,17,10,26,0.76,7,Fog-Rain-Thunderstorm,208
2013-6-12,73,67,59,62,55,52,87,66,48,29.83,29.71,29.62,10,10,8,24,10,33,0.00,3,,312
2013-6-13,62,58,53,58,55,52,100,92,78,29.83,29.68,29.53,10,6,2,21,7,31,0.50,7,Rain,75
2013-6-14,68,60,53,57,54,50,100,87,60,29.81,29.64,29.52,10,7,2,18,14,34,0.37,6,Rain,5
2013-6-15,78,66,55,60,54,48,93,64,37,29.96,29.91,29.82,10,9,8,14,6,20,0.00,0,,295
2013-6-16,72,62,53,64,59,53,100,87,68,29.97,29.89,29.76,7,6,2,14,2,,0.00,2,,209
2013-6-17,80,69,60,68,64,57,100,84,60,29.93,29.87,29.83,10,7,1,20,5,30,0.01,1,Rain,250
2013-6-18,75,68,60,66,63,59,97,89,73,29.91,29.88,29.84,9,7,2,13,5,,0.02,4,Rain,64
2013-6-19,77,66,57,60,57,51,97,80,43,30.14,29.97,29.86,10,9,8,15,11,21,0.00,3,Rain,16
2013-6-20,75,64,52,61,55,50,100,75,50,30.28,30.24,30.17,10,8,5,10,5,,0.00,0,,223
2013-6-21,77,68,60,63,58,55,90,74,53,30.29,30.27,30.24,10,9,7,13,8,18,0.00,0,,226
2013-6-22,75,68,61,64,61,55,100,80,64,30.26,30.22,30.17,10,8,7,10,6,,0.00,0,,209
2013-6-23,78,70,63,70,67,62,100,89,71,30.19,30.13,30.08,8,7,5,16,5,25,0.00,1,,217
2013-6-24,88,78,68,74,71,67,100,88,63,30.06,30.00,29.92,9,5,1,14,6,20,0.00,4,,235
2013-6-25,84,74,66,72,69,65,93,84,69,29.96,29.87,29.76,8,6,5,10,6,,0.00,0,,223
2013-6-26,84,75,68,73,69,67,100,85,69,29.83,29.79,29.75,7,6,4,15,4,23,0.01,1,Rain,234
2013-6-27,75,70,66,72,69,66,100,97,87,29.82,29.78,29.68,6,3,0,18,6,,0.03,7,Fog-Rain-Thunderstorm,96
2013-6-28,75,70,66,72,69,66,100,98,88,29.69,29.57,29.53,5,2,0,15,11,,0.25,7,Fog-Rain-Thunderstorm,173
2013-6-29,75,70,66,73,69,66,100,98,79,29.74,29.59,29.50,7,3,0,13,5,,0.02,6,Fog-Rain-Thunderstorm,179
2013-6-30,73,70,68,72,70,67,100,99,87,29.95,29.86,29.74,7,3,0,14,6,,0.15,8,Fog-Rain,166